createdAt,value
2023-02-08T00:02:05.070Z,102902.09
2023-02-08T00:05:08.536Z,102915.34
2023-02-08T00:08:12.086Z,102905.69
2023-02-08T00:11:15.621Z,102909.34
2023-02-08T00:14:18.882Z,102905.91
2023-02-08T00:17:22.624Z,102905.38
2023-02-08T00:20:26.518Z,102896.44
2023-02-08T00:23:29.950Z,102909.34
2023-02-08T00:26:33.408Z,102905.88
2023-02-08T00:29:36.824Z,102907.91
2023-02-08T00:32:39.917Z,102907.00
2023-02-08T00:35:43.464Z,102903.81
2023-02-08T00:38:46.746Z,102901.00
2023-02-08T00:41:50.552Z,102904.53
2023-02-08T00:44:53.765Z,102899.06
2023-02-08T00:47:58.174Z,102907.03
2023-02-08T00:51:15.980Z,102900.94
2023-02-08T00:54:21.607Z,102901.09
2023-02-08T00:57:26.907Z,102902.28
2023-02-08T01:00:32.040Z,102906.56
2023-02-08T01:03:37.375Z,102905.72
2023-02-08T01:06:41.012Z,102897.72
2023-02-08T01:09:44.733Z,102905.72
2023-02-08T01:12:48.259Z,102900.28
2023-02-08T01:15:51.470Z,102898.53
2023-02-08T01:18:58.035Z,102903.03
2023-02-08T01:22:01.422Z,102896.69
2023-02-08T01:25:06.404Z,102909.81
2023-02-08T01:28:09.659Z,102912.56
2023-02-08T01:31:19.248Z,102913.06
2023-02-08T01:34:23.042Z,102921.91
2023-02-08T01:37:26.719Z,102919.31
2023-02-08T01:40:29.906Z,102905.31
2023-02-08T01:43:58.830Z,102905.31
2023-02-08T01:47:01.926Z,102906.75
2023-02-08T01:50:05.664Z,102910.41
2023-02-08T01:53:13.263Z,102905.91
2023-02-08T01:56:39.489Z,102900.72
2023-02-08T01:59:49.993Z,102898.88
2023-02-08T02:02:55.792Z,102906.00
2023-02-08T02:06:08.716Z,102895.50
2023-02-08T02:09:37.066Z,102904.50
2023-02-08T02:12:42.232Z,102895.72
2023-02-08T02:15:46.280Z,102894.75
2023-02-08T02:18:50.046Z,102893.88
2023-02-08T02:22:30.140Z,102889.78
2023-02-08T02:26:15.249Z,102869.53
2023-02-08T02:29:33.626Z,102875.84
2023-02-08T02:32:47.318Z,102882.91
2023-02-08T02:36:16.279Z,102887.44
2023-02-08T02:39:36.398Z,102896.28
2023-02-08T02:43:18.607Z,102903.25
2023-02-08T02:46:41.134Z,102895.22
2023-02-08T02:49:56.215Z,102904.22
2023-02-08T02:53:05.665Z,102912.91
2023-02-08T02:56:22.549Z,102920.53
2023-02-08T02:59:27.465Z,102930.19
2023-02-08T03:02:30.856Z,102930.09
2023-02-08T03:05:35.214Z,102931.13
2023-02-08T03:09:09.113Z,102925.03
2023-02-08T03:12:12.526Z,102926.72
2023-02-08T03:15:44.470Z,102933.06
2023-02-08T03:19:03.173Z,102927.59
2023-02-08T03:22:12.614Z,102935.72
2023-02-08T03:25:50.043Z,102945.50
2023-02-08T03:29:04.052Z,102954.25
2023-02-08T03:32:14.138Z,102946.28
2023-02-08T03:35:34.904Z,102936.72
2023-02-08T03:38:43.854Z,102937.56
2023-02-08T03:41:51.463Z,102938.56
2023-02-08T03:45:00.641Z,102950.34
2023-02-08T03:48:06.679Z,102959.03
2023-02-08T03:51:10.705Z,102957.22
2023-02-08T03:54:20.225Z,102952.78
2023-02-08T03:57:26.641Z,102960.75
2023-02-08T04:00:35.627Z,102955.44
2023-02-08T04:03:41.143Z,102959.03
2023-02-08T04:06:44.252Z,102957.31
2023-02-08T04:09:48.104Z,102946.81
2023-02-08T04:12:51.982Z,102950.38
2023-02-08T04:15:55.645Z,102950.31
2023-02-08T04:18:58.831Z,102955.44
2023-02-08T04:22:02.489Z,102963.38
2023-02-08T04:25:06.713Z,102963.31
2023-02-08T04:28:10.371Z,102951.81
2023-02-08T04:31:14.589Z,102957.12
2023-02-08T04:34:18.196Z,102959.69
2023-02-08T04:37:21.845Z,102953.34
2023-02-08T04:40:25.602Z,102942.84
2023-02-08T04:43:28.859Z,102948.94
2023-02-08T04:46:32.339Z,102960.53
2023-02-08T04:49:35.766Z,102947.03
2023-02-08T04:52:39.445Z,102944.44
2023-02-08T04:55:42.696Z,102951.31
2023-02-08T04:58:46.790Z,102952.09
2023-02-08T05:01:49.979Z,102951.87
2023-02-08T05:04:53.510Z,102956.13
2023-02-08T05:07:56.740Z,102966.34
2023-02-08T05:11:00.290Z,102967.69
2023-02-08T05:14:04.087Z,102972.37
2023-02-08T05:17:08.276Z,102969.84
2023-02-08T05:20:13.793Z,102984.25
2023-02-08T05:23:21.085Z,102991.03
2023-02-08T05:26:25.290Z,103004.66
2023-02-08T05:29:30.262Z,103003.06
2023-02-08T05:32:33.412Z,102997.94
2023-02-08T05:35:39.352Z,102999.87
2023-02-08T05:38:43.324Z,103002.41
2023-02-08T05:41:47.023Z,102998.78
2023-02-08T05:44:49.882Z,103012.59
2023-02-08T05:47:53.235Z,103006.53
2023-02-08T05:50:57.006Z,103005.13
2023-02-08T05:54:00.490Z,103008.84
2023-02-08T05:57:03.580Z,103015.81
2023-02-08T06:00:07.548Z,103013.75
2023-02-08T06:03:19.146Z,103018.84
2023-02-08T06:06:22.611Z,103013.81
2023-02-08T06:09:25.878Z,103011.44
2023-02-08T06:12:29.357Z,103024.66
2023-02-08T06:15:32.573Z,103032.00
2023-02-08T06:18:36.021Z,103028.78
2023-02-08T06:21:39.789Z,103028.62
2023-02-08T06:24:43.369Z,103028.00
2023-02-08T06:27:46.897Z,103030.44
2023-02-08T06:30:53.480Z,103043.37
2023-02-08T06:33:57.670Z,103039.66
2023-02-08T06:37:03.133Z,103039.19
2023-02-08T06:40:06.847Z,103043.84
2023-02-08T06:43:15.863Z,103042.81
2023-02-08T06:46:20.286Z,103048.59
2023-02-08T06:49:25.621Z,103047.16
2023-02-08T06:52:28.824Z,103047.16
2023-02-08T06:55:33.508Z,103051.44
2023-02-08T06:58:38.236Z,103057.69
2023-02-08T07:01:41.749Z,103059.53
2023-02-08T07:04:45.664Z,103054.59
2023-02-08T07:07:49.316Z,103052.75
2023-02-08T07:10:53.286Z,103054.50
2023-02-08T07:13:56.799Z,103065.59
2023-02-08T07:17:01.076Z,103068.22
2023-02-08T07:20:05.012Z,103074.66
2023-02-08T07:23:11.024Z,103074.97
2023-02-08T07:26:17.733Z,103076.50
2023-02-08T07:29:21.079Z,103071.50
2023-02-08T07:32:24.828Z,103081.03
2023-02-08T07:35:28.068Z,103061.19
2023-02-08T07:38:33.892Z,103070.19
2023-02-08T07:41:36.971Z,103068.31
2023-02-08T07:44:40.383Z,103063.59
2023-02-08T07:47:46.301Z,103080.94
2023-02-08T07:50:49.678Z,103081.66
2023-02-08T07:53:53.380Z,103074.75
2023-02-08T07:56:57.093Z,103085.53
2023-02-08T08:00:00.392Z,103093.94
2023-02-08T08:03:04.245Z,103089.78
2023-02-08T08:06:07.887Z,103095.31
2023-02-08T08:09:11.084Z,103090.94
2023-02-08T08:12:15.163Z,103088.50
2023-02-08T08:15:18.697Z,103092.28
2023-02-08T08:18:22.238Z,103075.50
2023-02-08T08:21:26.127Z,103094.66
2023-02-08T08:24:31.906Z,103099.38
2023-02-08T08:27:35.330Z,103100.66
2023-02-08T08:30:39.324Z,103102.53
2023-02-08T08:33:42.962Z,103107.03
2023-02-08T08:36:46.404Z,103110.75
2023-02-08T08:39:49.616Z,103120.94
2023-02-08T08:42:53.401Z,103116.75
2023-02-08T08:45:57.712Z,103112.69
2023-02-08T08:49:01.631Z,103113.97
2023-02-08T08:52:08.916Z,103114.72
2023-02-08T08:55:12.719Z,103117.69
2023-02-08T08:58:17.182Z,103105.97
2023-02-08T09:01:21.851Z,103117.41
2023-02-08T09:04:25.567Z,103121.34
2023-02-08T09:07:29.020Z,103124.28
2023-02-08T09:10:33.612Z,103120.81
2023-02-08T09:13:37.942Z,103119.97
2023-02-08T09:16:42.730Z,103110.25
2023-02-08T09:19:47.429Z,103131.72
2023-02-08T09:22:51.230Z,103125.97
2023-02-08T09:25:54.907Z,103133.94
2023-02-08T09:28:58.872Z,103138.37
2023-02-08T09:32:02.314Z,103124.31
2023-02-08T09:35:07.176Z,103144.94
2023-02-08T09:38:10.806Z,103136.97
2023-02-08T09:41:39.215Z,103143.94
2023-02-08T09:45:15.778Z,103138.53
2023-02-08T09:48:28.876Z,103140.47
2023-02-08T09:51:42.394Z,103126.62
2023-02-08T09:54:52.456Z,103128.28
2023-02-08T09:57:58.457Z,103137.34
2023-02-08T10:01:05.970Z,103134.16
2023-02-08T10:04:22.649Z,103139.81
2023-02-08T10:07:28.282Z,103134.56
2023-02-08T10:10:32.463Z,103112.25
2023-02-08T10:13:49.407Z,103124.91
2023-02-08T10:17:25.594Z,103124.84
2023-02-08T10:20:40.649Z,103113.91
2023-02-08T10:24:03.205Z,103131.72
2023-02-08T10:27:16.821Z,103126.00
2023-02-08T10:30:36.778Z,103118.47
2023-02-08T10:33:47.608Z,103118.50
2023-02-08T10:36:51.570Z,103119.44
2023-02-08T10:39:57.482Z,103116.84
2023-02-08T10:43:24.823Z,103122.19
2023-02-08T10:46:34.355Z,103099.06
2023-02-08T10:49:43.096Z,103114.34
2023-02-08T10:52:46.355Z,103113.38
2023-02-08T10:55:51.679Z,103117.72
2023-02-08T10:58:59.977Z,103114.03
2023-02-08T11:02:26.873Z,103103.47
2023-02-08T11:05:35.931Z,103119.62
2023-02-08T11:08:55.345Z,103116.06
2023-02-08T11:12:01.936Z,103115.19
2023-02-08T11:15:05.545Z,103120.56
2023-02-08T11:18:36.178Z,103115.13
2023-02-08T11:21:41.240Z,103120.34
2023-02-08T11:24:50.555Z,103123.59
2023-02-08T11:27:54.207Z,103111.41
2023-02-08T11:31:12.119Z,103115.97
2023-02-08T11:34:29.964Z,103107.94
2023-02-08T11:37:33.070Z,103111.63
2023-02-08T11:40:45.715Z,103115.22
2023-02-08T11:44:08.090Z,103114.19
2023-02-08T11:47:16.980Z,103111.56
2023-02-08T11:50:26.446Z,103096.34
2023-02-08T11:53:39.779Z,103112.22
2023-02-08T11:56:43.011Z,103110.81
2023-02-08T11:59:48.816Z,103105.25
2023-02-08T12:03:01.108Z,103103.16
2023-02-08T12:06:32.796Z,103091.78
2023-02-08T12:09:48.225Z,103100.00
2023-02-08T12:13:12.865Z,103085.69
2023-02-08T12:16:42.923Z,103091.06
2023-02-08T12:20:08.419Z,103085.66
2023-02-08T12:23:55.899Z,103090.19
2023-02-08T12:27:17.301Z,103091.91
2023-02-08T12:30:27.132Z,103091.09
2023-02-08T12:33:37.780Z,103086.59
2023-02-08T12:36:49.721Z,103083.00
2023-02-08T12:40:34.587Z,103079.44
2023-02-08T12:44:02.553Z,103076.75
2023-02-08T12:47:37.796Z,103074.94
2023-02-08T12:51:12.001Z,103079.41
2023-02-08T12:54:38.454Z,103075.84
2023-02-08T12:57:44.965Z,103070.47
2023-02-08T13:00:50.861Z,103069.59
2023-02-08T13:04:20.698Z,103066.00
2023-02-08T13:07:29.617Z,103067.78
2023-02-08T13:10:43.779Z,103076.72
2023-02-08T13:14:26.015Z,103054.34
2023-02-08T13:17:42.262Z,103073.16
2023-02-08T13:20:52.820Z,103080.25
2023-02-08T13:23:57.051Z,103074.81
2023-02-08T13:27:02.129Z,103076.59
2023-02-08T13:30:07.070Z,103080.91
2023-02-08T13:33:30.010Z,103086.12
2023-02-08T13:36:36.963Z,103071.97
2023-02-08T13:39:46.406Z,103080.72
2023-02-08T13:42:56.106Z,103086.81
2023-02-08T13:46:00.759Z,103082.19
2023-02-08T13:49:04.173Z,103068.06
2023-02-08T13:52:12.686Z,103074.56
2023-02-08T13:55:28.897Z,103071.09
2023-02-08T13:58:36.581Z,103067.53
2023-02-08T14:02:22.342Z,103073.72
2023-02-08T14:05:46.915Z,103075.50
2023-02-08T14:08:52.924Z,103067.44
2023-02-08T14:12:04.916Z,103069.31
2023-02-08T14:15:16.811Z,103074.69
2023-02-08T14:18:28.359Z,103065.59
2023-02-08T14:21:46.343Z,103066.50
2023-02-08T14:25:17.808Z,103057.41
2023-02-08T14:28:29.406Z,103072.56
2023-02-08T14:31:44.379Z,103069.00
2023-02-08T14:34:49.045Z,103065.28
2023-02-08T14:38:18.590Z,103071.34
2023-02-08T14:41:43.262Z,103069.31
2023-02-08T14:44:57.789Z,103072.84
2023-02-08T14:48:10.120Z,103066.53
2023-02-08T14:51:27.908Z,103070.91
2023-02-08T14:54:57.180Z,103061.81
2023-02-08T14:58:02.868Z,103078.59
2023-02-08T15:01:13.831Z,103074.75
2023-02-08T15:04:20.924Z,103079.03
2023-02-08T15:07:55.577Z,103085.94
2023-02-08T15:10:59.300Z,103076.75
2023-02-08T15:14:06.247Z,103085.59
2023-02-08T15:17:31.102Z,103092.53
2023-02-08T15:20:36.430Z,103088.59
2023-02-08T15:23:40.012Z,103089.19
2023-02-08T15:27:20.125Z,103085.41
2023-02-08T15:30:31.996Z,103096.56
2023-02-08T15:33:39.453Z,103099.06
2023-02-08T15:36:49.696Z,103104.09
2023-02-08T15:39:56.111Z,103104.84
2023-02-08T15:43:21.015Z,103101.88
2023-02-08T15:46:26.971Z,103113.19
2023-02-08T15:49:38.102Z,103111.03
2023-02-08T15:52:41.553Z,103112.25
2023-02-08T15:55:52.220Z,103125.91
2023-02-08T15:58:59.046Z,103114.75
2023-02-08T16:02:21.313Z,103112.41
2023-02-08T16:05:28.303Z,103113.72
2023-02-08T16:08:40.067Z,103127.47
2023-02-08T16:11:49.338Z,103120.69
2023-02-08T16:14:56.795Z,103128.59
2023-02-08T16:18:00.297Z,103126.31
2023-02-08T16:21:31.972Z,103127.25
2023-02-08T16:24:35.758Z,103129.28
2023-02-08T16:27:47.381Z,103138.44
2023-02-08T16:30:51.364Z,103142.38
2023-02-08T16:34:14.493Z,103136.22
2023-02-08T16:37:30.877Z,103161.47
2023-02-08T16:40:51.763Z,103157.41
2023-02-08T16:44:17.328Z,103154.56
2023-02-08T16:47:38.496Z,103157.75
2023-02-08T16:50:42.542Z,103163.69
2023-02-08T16:53:47.744Z,103168.06
2023-02-08T16:56:59.971Z,103171.09
2023-02-08T17:00:14.580Z,103179.63
2023-02-08T17:03:22.969Z,103176.53
2023-02-08T17:06:36.188Z,103174.56
2023-02-08T17:09:42.485Z,103180.69
2023-02-08T17:12:46.723Z,103182.31
2023-02-08T17:15:52.417Z,103186.97
2023-02-08T17:19:01.438Z,103182.13
2023-02-08T17:22:07.966Z,103175.81
2023-02-08T17:25:19.030Z,103188.13
2023-02-08T17:28:24.349Z,103163.62
2023-02-08T17:31:32.219Z,103187.12
2023-02-08T17:34:38.148Z,103181.75
2023-02-08T17:37:41.887Z,103185.09
2023-02-08T17:40:46.418Z,103180.25
2023-02-08T17:43:52.692Z,103196.22
2023-02-08T17:46:56.905Z,103187.06
2023-02-08T17:50:01.095Z,103179.72
2023-02-08T17:53:07.883Z,103179.72
2023-02-08T17:56:14.121Z,103194.38
2023-02-08T17:59:18.762Z,103197.59
2023-02-08T18:02:23.381Z,103194.94
2023-02-08T18:05:29.335Z,103198.16
2023-02-08T18:08:34.113Z,103194.53
2023-02-08T18:11:38.919Z,103137.50
2023-02-08T18:14:43.907Z,103195.84
2023-02-08T18:17:50.881Z,103191.97
2023-02-08T18:20:55.331Z,103188.47
2023-02-08T18:24:04.849Z,103186.81
2023-02-08T18:27:10.816Z,103190.25
2023-02-08T18:30:16.605Z,103184.94
2023-02-08T18:33:22.160Z,103176.94
2023-02-08T18:36:27.783Z,103190.88
2023-02-08T18:39:33.643Z,103193.09
2023-02-08T18:42:38.922Z,103197.22
2023-02-08T18:45:43.941Z,103194.06
2023-02-08T18:48:51.340Z,103190.03
2023-02-08T18:51:59.811Z,103207.75
2023-02-08T18:55:05.424Z,103182.53
2023-02-08T18:58:10.233Z,103207.25
2023-02-08T19:01:24.379Z,103209.22
2023-02-08T19:04:30.561Z,103213.31
2023-02-08T19:07:37.022Z,103211.84
2023-02-08T19:10:43.114Z,103214.97
2023-02-08T19:13:49.287Z,103210.94
2023-02-08T19:16:54.424Z,103212.47
2023-02-08T19:20:12.836Z,103220.22
2023-02-08T19:23:18.969Z,103224.91
2023-02-08T19:26:29.809Z,103226.56
2023-02-08T19:29:35.274Z,103221.44
2023-02-08T19:32:40.723Z,103207.56
2023-02-08T19:36:07.665Z,103220.44
2023-02-08T19:39:18.481Z,103226.28
2023-02-08T19:42:23.310Z,103227.25
2023-02-08T19:45:28.643Z,103224.06
2023-02-08T19:48:35.880Z,103221.06
2023-02-08T19:51:45.215Z,103214.31
2023-02-08T19:54:53.490Z,103228.62
2023-02-08T19:58:00.594Z,103224.03
2023-02-08T20:01:09.967Z,103224.56
2023-02-08T20:04:17.992Z,103218.97
2023-02-08T20:07:22.559Z,103218.16
2023-02-08T20:10:31.483Z,103220.34
2023-02-08T20:13:35.937Z,103224.62
2023-02-08T20:16:42.030Z,103221.19
2023-02-08T20:19:48.322Z,103230.00
2023-02-08T20:22:55.013Z,103226.22
2023-02-08T20:26:14.148Z,103230.59
2023-02-08T20:29:20.238Z,103227.78
2023-02-08T20:32:26.530Z,103227.25
2023-02-08T20:35:32.449Z,103226.56
2023-02-08T20:38:38.600Z,103227.91
2023-02-08T20:41:45.004Z,103231.25
2023-02-08T20:44:50.081Z,103240.81
2023-02-08T20:47:55.045Z,103237.53
2023-02-08T20:51:12.682Z,103225.72
2023-02-08T20:54:19.868Z,103243.72
2023-02-08T20:57:25.839Z,103244.31
2023-02-08T21:00:40.379Z,103229.50
2023-02-08T21:03:48.047Z,103239.34
2023-02-08T21:06:54.493Z,103240.47
2023-02-08T21:10:04.586Z,103241.59
2023-02-08T21:13:09.430Z,103215.19
2023-02-08T21:16:14.893Z,103231.38
2023-02-08T21:19:21.003Z,103239.78
2023-02-08T21:22:24.785Z,103243.09
2023-02-08T21:25:29.999Z,103238.72
2023-02-08T21:28:35.676Z,103237.50
2023-02-08T21:31:41.302Z,103223.06
2023-02-08T21:34:45.277Z,103229.53
2023-02-08T21:37:49.134Z,103235.84
2023-02-08T21:40:54.894Z,103226.94
2023-02-08T21:44:04.432Z,103224.81
2023-02-08T21:47:09.259Z,103227.34
2023-02-08T21:50:32.300Z,103227.19
2023-02-08T21:53:54.340Z,103216.41
2023-02-08T21:57:06.030Z,103228.09
2023-02-08T22:00:11.296Z,103226.19
2023-02-08T22:03:17.924Z,103219.34
2023-02-08T22:06:40.039Z,103212.94
2023-02-08T22:09:43.515Z,103216.91
2023-02-08T22:12:47.589Z,103224.47
2023-02-08T22:15:50.863Z,103225.94
2023-02-08T22:18:54.218Z,103223.75
2023-02-08T22:21:57.424Z,103226.25
2023-02-08T22:25:01.330Z,103224.91
2023-02-08T22:28:05.477Z,103218.75
2023-02-08T22:31:09.502Z,103219.37
2023-02-08T22:34:12.722Z,103227.56
2023-02-08T22:37:16.774Z,103220.91
2023-02-08T22:40:20.602Z,103235.19
2023-02-08T22:43:24.101Z,103226.81
2023-02-08T22:46:27.459Z,103225.00
2023-02-08T22:49:30.985Z,103225.16
2023-02-08T22:52:34.748Z,103224.75
2023-02-08T22:55:38.173Z,103226.13
2023-02-08T22:58:41.398Z,103225.97
2023-02-08T23:01:45.114Z,103227.34
2023-02-08T23:04:48.325Z,103228.72
2023-02-08T23:07:51.751Z,103222.28
2023-02-08T23:11:02.262Z,103220.63
2023-02-08T23:14:05.683Z,103215.63
2023-02-08T23:17:08.875Z,103206.88
2023-02-08T23:20:12.459Z,103212.00
2023-02-08T23:23:16.941Z,103213.16
2023-02-08T23:26:21.664Z,103203.59
2023-02-08T23:29:25.530Z,103200.09
2023-02-08T23:32:29.126Z,103211.62
2023-02-08T23:35:32.579Z,103198.69
2023-02-08T23:38:36.343Z,103191.91
2023-02-08T23:41:39.633Z,103190.78
2023-02-08T23:44:43.395Z,103197.31
2023-02-08T23:47:46.571Z,103194.69
2023-02-08T23:51:01.895Z,103189.69
2023-02-08T23:54:05.320Z,103192.31
2023-02-08T23:57:09.196Z,103197.75
